Time;durP1;ratioP1;P1;durP2;ratioP2;P2;SDS_P1;SDS_P2;PMS_P1;PMS_P2;Temp;Humidity;BMP_temperature;BMP_pressure;BME280_temperature;BME280_humidity;BME280_pressure;Samples;Min_cycle;Max_cycle;Signal;HPM_P1;HPM_P2
2023/07/14 00:01:53;;;;;;;26.93;25.23;;;;;;;;;;5138303;27;20435;-80
2023/07/14 00:04:23;;;;;;;28.40;26.60;;;;;;;;;;5137460;27;20435;-81
2023/07/14 00:06:50;;;;;;;28.83;26.73;;;;;;;;;;5137812;27;20410;-80
2023/07/14 00:09:24;;;;;;;27.67;25.90;;;;;;;;;;5135962;27;20417;-79
2023/07/14 00:11:52;;;;;;;29.40;27.60;;;;;;;;;;5135886;27;20474;-79
2023/07/14 00:14:19;;;;;;;26.87;25.27;;;;;;;;;;5136574;27;20496;-80
2023/07/14 00:16:47;;;;;;;28.73;26.83;;;;;;;;;;5135535;27;20447;-81
2023/07/14 00:19:15;;;;;;;27.70;26.10;;;;;;;;;;5135300;27;20406;-79
2023/07/14 00:21:42;;;;;;;28.07;26.30;;;;;;;;;;5136216;27;20534;-81
2023/07/14 00:24:12;;;;;;;27.90;26.00;;;;;;;;;;5136308;27;20462;-78
2023/07/14 00:26:41;;;;;;;27.73;25.83;;;;;;;;;;5135342;27;20875;-78
2023/07/14 00:29:20;;;;;;;26.00;24.50;;;;;;;;;;5136445;27;20516;-79
2023/07/14 00:31:47;;;;;;;28.40;26.70;;;;;;;;;;5135716;27;20789;-79
2023/07/14 00:34:14;;;;;;;27.50;25.60;;;;;;;;;;5135834;27;20414;-79
2023/07/14 00:36:41;;;;;;;28.37;26.47;;;;;;;;;;5134370;27;21045;-80
2023/07/14 00:39:08;;;;;;;27.83;26.07;;;;;;;;;;5135055;27;20426;-81
2023/07/14 00:41:35;;;;;;;27.40;25.60;;;;;;;;;;5135072;27;20454;-80
2023/07/14 00:44:02;;;;;;;27.10;25.20;;;;;;;;;;5135364;27;20446;-80
2023/07/14 00:46:32;;;;;;;27.30;25.43;;;;;;;;;;5134730;27;20443;-81
2023/07/14 00:49:00;;;;;;;26.23;24.70;;;;;;;;;;5135231;27;20451;-81
2023/07/14 00:51:28;;;;;;;28.50;26.80;;;;;;;;;;5133997;27;20994;-80
2023/07/14 00:53:56;;;;;;;27.50;25.80;;;;;;;;;;5134859;27;20988;-80
2023/07/14 00:56:41;;;;;;;26.87;25.03;;;;;;;;;;5133881;27;20506;-80
2023/07/14 00:59:13;;;;;;;27.47;25.87;;;;;;;;;;5134895;27;20793;-80
2023/07/14 01:01:55;;;;;;;26.73;24.83;;;;;;;;;;5134996;27;20458;-79
2023/07/14 01:04:23;;;;;;;27.27;25.57;;;;;;;;;;5134291;27;20421;-80
2023/07/14 01:06:50;;;;;;;27.30;25.63;;;;;;;;;;5134098;27;20451;-80
2023/07/14 01:09:17;;;;;;;26.80;25.10;;;;;;;;;;5134276;27;20475;-78
2023/07/14 01:11:46;;;;;;;26.30;24.60;;;;;;;;;;5134687;27;20442;-80
2023/07/14 01:14:16;;;;;;;26.97;25.27;;;;;;;;;;5134951;27;20457;-78
2023/07/14 01:16:46;;;;;;;26.43;24.63;;;;;;;;;;5134219;27;20464;-78
2023/07/14 01:19:16;;;;;;;26.10;24.43;;;;;;;;;;5133981;27;20478;-79
2023/07/14 01:21:49;;;;;;;27.33;25.60;;;;;;;;;;5135187;27;20429;-78
2023/07/14 01:24:20;;;;;;;26.93;25.23;;;;;;;;;;5136197;27;20450;-80
2023/07/14 01:26:56;;;;;;;27.13;25.33;;;;;;;;;;5136372;27;20448;-80
2023/07/14 01:29:23;;;;;;;26.43;24.83;;;;;;;;;;5136254;27;20456;-79
2023/07/14 01:31:50;;;;;;;27.10;25.50;;;;;;;;;;5136336;27;20476;-79
2023/07/14 01:34:17;;;;;;;25.10;23.60;;;;;;;;;;5136721;27;20413;-80
2023/07/14 01:36:46;;;;;;;26.47;24.80;;;;;;;;;;5136051;27;20461;-79
2023/07/14 01:39:14;;;;;;;25.53;24.00;;;;;;;;;;5136089;27;20771;-79
2023/07/14 01:41:42;;;;;;;27.70;25.73;;;;;;;;;;5136729;27;20485;-79
2023/07/14 01:44:18;;;;;;;26.97;25.37;;;;;;;;;;5136419;27;20477;-80
2023/07/14 01:46:46;;;;;;;26.80;25.10;;;;;;;;;;5135627;27;20858;-79
2023/07/14 01:49:23;;;;;;;25.50;23.80;;;;;;;;;;5136214;27;20467;-78
2023/07/14 01:51:52;;;;;;;26.90;25.30;;;;;;;;;;5135973;27;20469;-80
2023/07/14 01:54:25;;;;;;;26.17;24.37;;;;;;;;;;5136244;27;20520;-79
2023/07/14 01:56:52;;;;;;;26.43;24.83;;;;;;;;;;5135541;27;20789;-80
2023/07/14 01:59:23;;;;;;;25.77;24.00;;;;;;;;;;5135970;27;20475;-80
2023/07/14 02:01:52;;;;;;;26.57;24.80;;;;;;;;;;5135642;27;21033;-80
2023/07/14 02:04:21;;;;;;;25.87;24.17;;;;;;;;;;5136189;27;20490;-79
2023/07/14 02:06:48;;;;;;;25.67;24.23;;;;;;;;;;5135534;27;20438;-79
2023/07/14 02:09:17;;;;;;;25.40;23.80;;;;;;;;;;5135940;27;20490;-80
2023/07/14 02:11:46;;;;;;;27.23;25.67;;;;;;;;;;5135368;27;20502;-80
2023/07/14 02:14:16;;;;;;;26.43;24.90;;;;;;;;;;5135599;27;20450;-79
2023/07/14 02:16:46;;;;;;;26.03;24.43;;;;;;;;;;5135225;27;20562;-79
2023/07/14 02:19:14;;;;;;;27.30;25.67;;;;;;;;;;5135847;27;20448;-79
2023/07/14 02:21:43;;;;;;;25.30;23.80;;;;;;;;;;5135611;27;20421;-80
2023/07/14 02:24:11;;;;;;;25.60;23.97;;;;;;;;;;5136013;27;20458;-80
2023/07/14 02:26:39;;;;;;;25.73;24.23;;;;;;;;;;5134730;27;20451;-80
2023/07/14 02:29:07;;;;;;;24.33;22.83;;;;;;;;;;5135007;27;20453;-80
2023/07/14 02:31:36;;;;;;;27.23;25.23;;;;;;;;;;5134936;27;20467;-80
2023/07/14 02:34:04;;;;;;;25.23;23.70;;;;;;;;;;5135434;27;20453;-80
2023/07/14 02:36:35;;;;;;;26.30;24.80;;;;;;;;;;5135466;27;20479;-79
2023/07/14 02:39:03;;;;;;;26.43;24.80;;;;;;;;;;5135946;28;20446;-78
2023/07/14 02:41:31;;;;;;;25.00;23.60;;;;;;;;;;5134229;27;20900;-79
2023/07/14 02:44:00;;;;;;;25.50;23.67;;;;;;;;;;5135997;28;20438;-80
2023/07/14 02:46:29;;;;;;;25.00;23.60;;;;;;;;;;5134954;28;20446;-80
2023/07/14 02:48:56;;;;;;;25.67;23.97;;;;;;;;;;5135593;28;20455;-79
2023/07/14 02:51:25;;;;;;;25.47;23.67;;;;;;;;;;5134366;27;20505;-80
2023/07/14 02:53:52;;;;;;;24.20;22.77;;;;;;;;;;5135150;28;20446;-79
2023/07/14 02:56:20;;;;;;;23.70;22.23;;;;;;;;;;5134461;28;20478;-80
2023/07/14 02:58:48;;;;;;;23.97;22.57;;;;;;;;;;5135175;28;20849;-79
2023/07/14 03:01:16;;;;;;;24.80;22.70;;;;;;;;;;5134625;27;20481;-80
2023/07/14 03:03:44;;;;;;;24.33;22.93;;;;;;;;;;5135570;28;20450;-80
2023/07/14 03:06:12;;;;;;;24.17;22.87;;;;;;;;;;5134459;28;20496;-79
2023/07/14 03:08:40;;;;;;;24.40;22.87;;;;;;;;;;5135178;27;20467;-79
2023/07/14 03:11:08;;;;;;;24.97;23.20;;;;;;;;;;5134677;27;20453;-79
2023/07/14 03:13:35;;;;;;;24.27;22.80;;;;;;;;;;5135249;27;20538;-79
2023/07/14 03:16:03;;;;;;;24.00;22.50;;;;;;;;;;5134549;28;20523;-80
2023/07/14 03:18:30;;;;;;;23.27;21.77;;;;;;;;;;5134893;28;20856;-79
2023/07/14 03:20:57;;;;;;;24.20;22.80;;;;;;;;;;5134688;28;20957;-79
2023/07/14 03:23:24;;;;;;;23.00;21.70;;;;;;;;;;5133857;27;20511;-80
2023/07/14 03:25:55;;;;;;;24.30;22.90;;;;;;;;;;5134426;28;20935;-79
2023/07/14 03:28:23;;;;;;;22.70;21.40;;;;;;;;;;5134863;28;20958;-80
2023/07/14 03:30:50;;;;;;;24.00;22.50;;;;;;;;;;5134494;28;20577;-79
2023/07/14 03:33:17;;;;;;;23.70;22.20;;;;;;;;;;5134064;27;20466;-79
2023/07/14 03:35:44;;;;;;;23.97;22.57;;;;;;;;;;5133773;28;20478;-81
2023/07/14 03:38:11;;;;;;;24.23;22.87;;;;;;;;;;5134272;28;20484;-81
2023/07/14 03:40:38;;;;;;;24.47;23.00;;;;;;;;;;5133679;27;20984;-81
2023/07/14 03:43:07;;;;;;;24.80;23.40;;;;;;;;;;5133668;28;20451;-81
2023/07/14 03:45:34;;;;;;;24.03;22.43;;;;;;;;;;5132960;28;20446;-80
2023/07/14 03:48:03;;;;;;;23.80;22.50;;;;;;;;;;5134437;28;20951;-79
2023/07/14 03:50:30;;;;;;;23.53;22.03;;;;;;;;;;5133920;27;20490;-80
2023/07/14 03:52:57;;;;;;;24.13;22.73;;;;;;;;;;5134927;27;20462;-81
2023/07/14 03:55:24;;;;;;;24.23;22.73;;;;;;;;;;5137910;27;20443;-79
2023/07/14 03:57:51;;;;;;;23.73;21.97;;;;;;;;;;5138768;27;20447;-79
2023/07/14 04:00:21;;;;;;;23.67;22.17;;;;;;;;;;5137351;27;20561;-81
2023/07/14 04:02:48;;;;;;;24.50;22.90;;;;;;;;;;5138100;27;20431;-79
2023/07/14 04:05:15;;;;;;;23.67;22.10;;;;;;;;;;5138578;27;20825;-79
2023/07/14 04:07:44;;;;;;;23.23;21.83;;;;;;;;;;5137542;27;20449;-79
2023/07/14 04:10:11;;;;;;;23.30;21.87;;;;;;;;;;5138092;27;20474;-79
2023/07/14 04:12:38;;;;;;;22.70;21.30;;;;;;;;;;5135463;27;20429;-77
2023/07/14 04:15:06;;;;;;;23.63;22.07;;;;;;;;;;5135154;27;20413;-78
2023/07/14 04:17:34;;;;;;;23.53;22.13;;;;;;;;;;5136262;27;20509;-77
2023/07/14 04:20:01;;;;;;;23.67;21.87;;;;;;;;;;5135828;27;20486;-77
2023/07/14 04:22:29;;;;;;;23.50;22.07;;;;;;;;;;5136217;27;20765;-77
2023/07/14 04:24:58;;;;;;;22.37;21.07;;;;;;;;;;5134446;27;21006;-78
2023/07/14 04:27:25;;;;;;;23.27;21.60;;;;;;;;;;5134613;27;20405;-78
2023/07/14 04:29:52;;;;;;;23.07;21.50;;;;;;;;;;5134836;27;20516;-78
2023/07/14 04:32:19;;;;;;;23.23;21.70;;;;;;;;;;5133875;27;20458;-77
2023/07/14 04:34:49;;;;;;;23.67;22.17;;;;;;;;;;5134959;27;20446;-78
2023/07/14 04:37:16;;;;;;;24.50;22.90;;;;;;;;;;5134040;27;20461;-78
2023/07/14 04:39:44;;;;;;;22.70;21.40;;;;;;;;;;5134423;27;20477;-77
2023/07/14 04:42:12;;;;;;;23.60;22.20;;;;;;;;;;5134387;27;20508;-77
2023/07/14 04:44:39;;;;;;;22.23;20.87;;;;;;;;;;5133791;27;21039;-78
2023/07/14 04:47:06;;;;;;;23.43;22.03;;;;;;;;;;5134212;27;20486;-77
2023/07/14 04:49:33;;;;;;;23.10;21.70;;;;;;;;;;5134766;27;20481;-79
2023/07/14 04:52:02;;;;;;;22.60;21.30;;;;;;;;;;5135202;27;20422;-78
2023/07/14 04:54:29;;;;;;;23.77;21.73;;;;;;;;;;5136098;27;20426;-79
2023/07/14 04:56:56;;;;;;;23.17;21.67;;;;;;;;;;5134176;27;20464;-79
2023/07/14 04:59:23;;;;;;;24.47;22.70;;;;;;;;;;5135031;27;21214;-78
2023/07/14 05:01:50;;;;;;;22.23;20.93;;;;;;;;;;5134648;27;20422;-76
2023/07/14 05:04:17;;;;;;;22.27;20.90;;;;;;;;;;5134749;27;20507;-78
2023/07/14 05:06:44;;;;;;;21.20;20.10;;;;;;;;;;5134489;27;20439;-78
2023/07/14 05:09:12;;;;;;;22.50;21.00;;;;;;;;;;5134552;27;20510;-77
2023/07/14 05:11:40;;;;;;;22.20;20.67;;;;;;;;;;5133687;27;20554;-77
2023/07/14 05:14:07;;;;;;;22.60;20.90;;;;;;;;;;5133923;27;20459;-77
2023/07/14 05:16:34;;;;;;;21.30;20.10;;;;;;;;;;5133384;27;20458;-77
2023/07/14 05:19:03;;;;;;;21.77;20.47;;;;;;;;;;5134034;27;21123;-79
2023/07/14 05:21:30;;;;;;;20.67;19.37;;;;;;;;;;5134713;27;20437;-77
2023/07/14 05:23:57;;;;;;;21.30;20.10;;;;;;;;;;5134836;27;20442;-79
2023/07/14 05:26:25;;;;;;;21.60;20.13;;;;;;;;;;5134085;27;20503;-79
2023/07/14 05:28:52;;;;;;;20.63;19.27;;;;;;;;;;5134760;27;20443;-76
2023/07/14 05:31:20;;;;;;;20.53;19.30;;;;;;;;;;5133516;27;20463;-77
2023/07/14 05:33:47;;;;;;;21.00;19.50;;;;;;;;;;5133100;27;20500;-76
2023/07/14 05:36:14;;;;;;;22.13;20.53;;;;;;;;;;5132738;27;20969;-79
2023/07/14 05:38:41;;;;;;;20.43;19.23;;;;;;;;;;5133908;27;20913;-77
2023/07/14 05:41:08;;;;;;;20.93;19.83;;;;;;;;;;5132675;27;20520;-76
2023/07/14 05:43:37;;;;;;;20.67;19.17;;;;;;;;;;5133195;27;20420;-77
2023/07/14 05:46:04;;;;;;;20.73;19.37;;;;;;;;;;5132809;27;20422;-77
2023/07/14 05:48:31;;;;;;;21.10;19.90;;;;;;;;;;5133321;27;20513;-77
2023/07/14 05:50:59;;;;;;;20.87;19.47;;;;;;;;;;5132763;27;20463;-77
2023/07/14 05:53:26;;;;;;;20.97;19.77;;;;;;;;;;5132463;27;20461;-77
2023/07/14 05:55:55;;;;;;;21.53;19.93;;;;;;;;;;5132277;27;20422;-78
2023/07/14 05:58:22;;;;;;;21.30;20.10;;;;;;;;;;5133164;27;20422;-78
2023/07/14 06:00:51;;;;;;;21.60;20.10;;;;;;;;;;5132274;27;20453;-78
2023/07/14 06:03:18;;;;;;;21.07;19.77;;;;;;;;;;5132962;27;20533;-77
2023/07/14 06:05:45;;;;;;;21.13;19.83;;;;;;;;;;5132153;27;20429;-77
2023/07/14 06:08:13;;;;;;;20.30;19.03;;;;;;;;;;5131886;27;20966;-77
2023/07/14 06:10:40;;;;;;;20.90;19.50;;;;;;;;;;5132917;27;20471;-76
2023/07/14 06:13:07;;;;;;;20.67;19.37;;;;;;;;;;5132430;27;20421;-77
2023/07/14 06:15:34;;;;;;;21.27;20.00;;;;;;;;;;5131306;27;20418;-77
2023/07/14 06:18:02;;;;;;;21.50;19.87;;;;;;;;;;5132395;27;20453;-78
2023/07/14 06:20:29;;;;;;;21.77;20.47;;;;;;;;;;5131783;27;20490;-77
2023/07/14 06:22:56;;;;;;;21.50;20.30;;;;;;;;;;5132438;27;20810;-77
2023/07/14 06:25:23;;;;;;;21.20;19.90;;;;;;;;;;5131843;27;20521;-77
2023/07/14 06:27:50;;;;;;;22.50;21.10;;;;;;;;;;5131864;27;20410;-77
2023/07/14 06:30:17;;;;;;;21.77;20.27;;;;;;;;;;5131412;27;20464;-77
2023/07/14 06:32:44;;;;;;;21.77;20.17;;;;;;;;;;5131950;27;20425;-77
2023/07/14 06:35:13;;;;;;;21.73;20.27;;;;;;;;;;5132057;27;20941;-77
2023/07/14 06:37:41;;;;;;;21.70;20.07;;;;;;;;;;5131171;27;20465;-77
2023/07/14 06:40:09;;;;;;;21.57;19.73;;;;;;;;;;5131422;27;20999;-77
2023/07/14 06:42:36;;;;;;;21.67;20.13;;;;;;;;;;5132116;28;20406;-77
2023/07/14 06:45:03;;;;;;;21.20;19.87;;;;;;;;;;5132097;28;20422;-77
2023/07/14 06:47:32;;;;;;;20.77;19.57;;;;;;;;;;5131027;28;20447;-77
2023/07/14 06:49:59;;;;;;;21.50;20.30;;;;;;;;;;5131485;27;20823;-77
2023/07/14 06:52:28;;;;;;;21.97;20.73;;;;;;;;;;5131492;28;20426;-77
2023/07/14 06:54:57;;;;;;;22.73;21.00;;;;;;;;;;5131736;28;20509;-77
2023/07/14 06:57:24;;;;;;;22.07;20.70;;;;;;;;;;5131390;28;20486;-77
2023/07/14 06:59:51;;;;;;;20.93;19.63;;;;;;;;;;5131495;28;20499;-78
2023/07/14 07:02:18;;;;;;;23.13;21.70;;;;;;;;;;5131798;27;20478;-79
2023/07/14 07:04:45;;;;;;;21.10;19.90;;;;;;;;;;5132205;28;20830;-77
2023/07/14 07:07:12;;;;;;;21.87;20.50;;;;;;;;;;5131042;27;20422;-78
2023/07/14 07:09:41;;;;;;;21.00;19.80;;;;;;;;;;5131822;28;20802;-77
2023/07/14 07:12:09;;;;;;;22.10;20.70;;;;;;;;;;5131081;27;20447;-73
2023/07/14 07:14:36;;;;;;;22.00;20.57;;;;;;;;;;5112151;28;21227;-83
2023/07/14 07:17:03;;;;;;;22.00;20.60;;;;;;;;;;5114802;28;20462;-77
2023/07/14 07:19:32;;;;;;;22.83;21.43;;;;;;;;;;5111698;28;20524;-77
2023/07/14 07:21:59;;;;;;;22.77;21.50;;;;;;;;;;5111519;28;20447;-77
2023/07/14 07:24:26;;;;;;;22.53;21.30;;;;;;;;;;5111175;28;20459;-79
2023/07/14 07:26:55;;;;;;;22.53;20.93;;;;;;;;;;5111950;28;20447;-77
2023/07/14 07:29:22;;;;;;;23.00;21.20;;;;;;;;;;5115478;28;20468;-79
2023/07/14 07:31:49;;;;;;;22.40;20.63;;;;;;;;;;5115193;27;21019;-79
2023/07/14 07:34:16;;;;;;;23.13;21.33;;;;;;;;;;5115245;28;20430;-78
2023/07/14 07:36:43;;;;;;;22.87;21.27;;;;;;;;;;5114300;27;20475;-78
2023/07/14 07:39:10;;;;;;;23.20;21.70;;;;;;;;;;5115657;28;20422;-78
2023/07/14 07:41:39;;;;;;;23.37;21.90;;;;;;;;;;5115251;28;20505;-78
2023/07/14 07:44:09;;;;;;;22.57;21.37;;;;;;;;;;5116073;28;20448;-77
2023/07/14 07:46:37;;;;;;;22.30;20.90;;;;;;;;;;5115232;28;20523;-78
2023/07/14 07:49:04;;;;;;;23.70;21.93;;;;;;;;;;5114681;28;20837;-78
2023/07/14 07:51:32;;;;;;;23.07;21.57;;;;;;;;;;5115567;28;20418;-79
2023/07/14 07:53:59;;;;;;;22.00;20.63;;;;;;;;;;5115862;28;20465;-78
2023/07/14 07:56:26;;;;;;;22.97;21.10;;;;;;;;;;5115072;27;20852;-78
2023/07/14 07:58:53;;;;;;;22.77;21.37;;;;;;;;;;5116364;28;20548;-79
2023/07/14 08:01:22;;;;;;;23.33;21.73;;;;;;;;;;5116144;28;20542;-78
2023/07/14 08:03:51;;;;;;;24.43;22.50;;;;;;;;;;5132644;27;20492;-79
2023/07/14 08:06:18;;;;;;;22.63;21.03;;;;;;;;;;5135997;27;20426;-77
2023/07/14 08:08:45;;;;;;;24.07;22.37;;;;;;;;;;5136198;27;20503;-77
2023/07/14 08:11:13;;;;;;;23.37;21.87;;;;;;;;;;5136426;27;20477;-79
2023/07/14 08:13:42;;;;;;;23.50;22.00;;;;;;;;;;5137043;27;20466;-80
2023/07/14 08:16:10;;;;;;;23.40;21.80;;;;;;;;;;5135239;27;20817;-79
2023/07/14 08:18:39;;;;;;;22.80;21.40;;;;;;;;;;5135127;27;20951;-79
2023/07/14 08:21:06;;;;;;;23.97;22.17;;;;;;;;;;5137077;27;21014;-80
2023/07/14 08:23:34;;;;;;;23.40;21.70;;;;;;;;;;5136371;27;20428;-79
2023/07/14 08:26:03;;;;;;;23.10;21.60;;;;;;;;;;5135803;27;20511;-79
2023/07/14 08:28:30;;;;;;;23.07;21.53;;;;;;;;;;5136623;27;21230;-79
2023/07/14 08:31:00;;;;;;;23.40;21.80;;;;;;;;;;5136048;27;20489;-79
2023/07/14 08:33:27;;;;;;;23.47;21.80;;;;;;;;;;5136724;27;20490;-79
2023/07/14 08:36:00;;;;;;;24.03;22.37;;;;;;;;;;5136063;27;20425;-76
2023/07/14 08:38:27;;;;;;;23.40;21.60;;;;;;;;;;5135287;27;20529;-78
2023/07/14 08:40:55;;;;;;;22.87;21.27;;;;;;;;;;5135600;27;20502;-77
2023/07/14 08:43:26;;;;;;;23.20;21.80;;;;;;;;;;5135928;27;20920;-80
2023/07/14 08:45:57;;;;;;;24.10;22.60;;;;;;;;;;5135370;27;20504;-80
2023/07/14 08:48:27;;;;;;;23.20;21.67;;;;;;;;;;5136287;27;20414;-80
2023/07/14 08:50:58;;;;;;;23.00;21.60;;;;;;;;;;5135987;27;20453;-79
2023/07/14 08:53:27;;;;;;;23.33;21.63;;;;;;;;;;5142659;27;20421;-81
2023/07/14 08:55:58;;;;;;;24.00;22.50;;;;;;;;;;5158116;27;20402;-78
2023/07/14 08:58:27;;;;;;;23.53;22.03;;;;;;;;;;5158774;27;20482;-79
2023/07/14 09:01:02;;;;;;;23.97;22.47;;;;;;;;;;5146204;27;20494;-79
2023/07/14 09:03:36;;;;;;;24.93;23.13;;;;;;;;;;5136951;27;20439;-79
2023/07/14 09:06:11;;;;;;;24.20;22.37;;;;;;;;;;5136411;27;20886;-79
2023/07/14 09:08:38;;;;;;;23.53;21.80;;;;;;;;;;5136600;27;20434;-78
2023/07/14 09:11:12;;;;;;;23.47;21.70;;;;;;;;;;5135962;27;20487;-79
2023/07/14 09:13:48;;;;;;;22.73;21.33;;;;;;;;;;5136703;27;20752;-79
2023/07/14 09:16:17;;;;;;;23.73;22.23;;;;;;;;;;5136433;27;20414;-79
2023/07/14 09:18:48;;;;;;;23.63;21.93;;;;;;;;;;5136538;27;20486;-80
2023/07/14 09:21:20;;;;;;;23.67;22.27;;;;;;;;;;5135661;27;20486;-79
2023/07/14 09:23:54;;;;;;;23.73;21.90;;;;;;;;;;5136332;27;20451;-80
2023/07/14 09:26:25;;;;;;;23.73;22.13;;;;;;;;;;5135799;27;20898;-80
2023/07/14 09:28:53;;;;;;;23.37;21.90;;;;;;;;;;5136382;27;20397;-80
2023/07/14 09:31:37;;;;;;;23.33;21.83;;;;;;;;;;5135750;27;20466;-79
2023/07/14 09:34:05;;;;;;;23.20;21.50;;;;;;;;;;5135747;27;20432;-79
2023/07/14 09:36:35;;;;;;;22.03;20.63;;;;;;;;;;5135117;27;20426;-80
2023/07/14 09:39:04;;;;;;;23.10;21.50;;;;;;;;;;5135714;27;20561;-78
2023/07/14 09:41:31;;;;;;;23.63;21.90;;;;;;;;;;5135083;27;20471;-79
2023/07/14 09:43:59;;;;;;;23.37;21.70;;;;;;;;;;5135420;27;20434;-79
2023/07/14 09:46:27;;;;;;;23.10;21.60;;;;;;;;;;5134911;27;20458;-79
2023/07/14 09:49:02;;;;;;;22.97;21.47;;;;;;;;;;5135359;27;20470;-80
2023/07/14 09:51:29;;;;;;;24.00;22.30;;;;;;;;;;5134888;27;20426;-80
2023/07/14 09:53:59;;;;;;;23.33;21.93;;;;;;;;;;5134668;27;20445;-79
2023/07/14 09:56:29;;;;;;;23.17;21.67;;;;;;;;;;5134534;27;20414;-80
2023/07/14 09:59:04;;;;;;;23.80;22.27;;;;;;;;;;5134998;27;20558;-79
2023/07/14 10:01:32;;;;;;;23.53;21.93;;;;;;;;;;5134663;27;20897;-79
2023/07/14 10:04:01;;;;;;;23.60;21.90;;;;;;;;;;5134410;27;20434;-79
2023/07/14 10:06:29;;;;;;;23.50;22.10;;;;;;;;;;5134387;27;20857;-78
2023/07/14 10:08:57;;;;;;;22.23;20.73;;;;;;;;;;5134559;27;20398;-79
2023/07/14 10:11:27;;;;;;;22.93;21.33;;;;;;;;;;5134348;27;20942;-79
2023/07/14 10:13:57;;;;;;;22.73;21.33;;;;;;;;;;5133333;27;20429;-79
2023/07/14 10:16:25;;;;;;;23.47;22.03;;;;;;;;;;5134375;27;20410;-79
2023/07/14 10:18:54;;;;;;;23.13;21.70;;;;;;;;;;5134482;27;20932;-79
2023/07/14 10:21:26;;;;;;;23.90;22.30;;;;;;;;;;5134303;27;20467;-79
2023/07/14 10:24:00;;;;;;;25.43;23.97;;;;;;;;;;5133697;27;20493;-79
2023/07/14 10:26:30;;;;;;;25.73;24.20;;;;;;;;;;5133695;27;20433;-79
2023/07/14 10:28:57;;;;;;;24.90;23.30;;;;;;;;;;5134294;27;20483;-78
2023/07/14 10:31:28;;;;;;;22.70;21.10;;;;;;;;;;5133202;27;20437;-80
2023/07/14 10:34:02;;;;;;;23.00;21.50;;;;;;;;;;5132669;27;20461;-80
2023/07/14 10:36:31;;;;;;;21.63;20.17;;;;;;;;;;5132715;27;20443;-80
2023/07/14 10:39:00;;;;;;;22.60;21.20;;;;;;;;;;5133249;27;20453;-80
2023/07/14 10:41:27;;;;;;;22.33;20.93;;;;;;;;;;5133214;28;20447;-80
2023/07/14 10:43:57;;;;;;;23.70;22.13;;;;;;;;;;5135019;27;20535;-82
2023/07/14 10:46:25;;;;;;;23.53;22.03;;;;;;;;;;5136541;28;20428;-82
2023/07/14 10:48:55;;;;;;;23.17;21.73;;;;;;;;;;5133555;28;20687;-79
2023/07/14 10:51:31;;;;;;;23.57;22.10;;;;;;;;;;5133986;28;20467;-78
2023/07/14 10:54:00;;;;;;;23.77;22.37;;;;;;;;;;5133424;27;20437;-80
2023/07/14 10:56:29;;;;;;;23.57;22.07;;;;;;;;;;5133329;28;20754;-79
2023/07/14 10:58:59;;;;;;;23.83;22.43;;;;;;;;;;5133551;28;20489;-78
2023/07/14 11:01:30;;;;;;;23.00;21.60;;;;;;;;;;5133780;27;20414;-79
2023/07/14 11:04:00;;;;;;;23.93;22.43;;;;;;;;;;5137064;27;20813;-79
2023/07/14 11:06:29;;;;;;;25.43;23.53;;;;;;;;;;5137203;27;20770;-79
2023/07/14 11:08:57;;;;;;;23.80;22.30;;;;;;;;;;5137505;27;20482;-79
2023/07/14 11:11:27;;;;;;;24.10;22.30;;;;;;;;;;5137063;27;21037;-77
2023/07/14 11:14:01;;;;;;;22.83;21.53;;;;;;;;;;5137198;27;20826;-79
2023/07/14 11:16:44;;;;;;;23.90;22.50;;;;;;;;;;5136199;27;20471;-78
2023/07/14 11:19:13;;;;;;;23.63;22.03;;;;;;;;;;5137596;27;20576;-80
2023/07/14 11:21:43;;;;;;;24.30;22.80;;;;;;;;;;5137249;27;20458;-79
2023/07/14 11:24:16;;;;;;;23.87;22.17;;;;;;;;;;5137304;27;20470;-79
2023/07/14 11:27:00;;;;;;;24.67;23.17;;;;;;;;;;5135519;27;20485;-79
2023/07/14 11:29:32;;;;;;;23.53;21.93;;;;;;;;;;5137039;27;20462;-79
2023/07/14 11:32:01;;;;;;;23.27;21.67;;;;;;;;;;5136888;27;20549;-78
2023/07/14 11:34:31;;;;;;;23.27;21.70;;;;;;;;;;5136645;27;20853;-79
2023/07/14 11:37:03;;;;;;;23.70;22.20;;;;;;;;;;5135929;27;20463;-79
2023/07/14 11:39:38;;;;;;;23.20;21.73;;;;;;;;;;5136682;27;20497;-79
2023/07/14 11:42:06;;;;;;;23.63;22.23;;;;;;;;;;5136879;27;20455;-78
2023/07/14 11:44:33;;;;;;;23.43;21.93;;;;;;;;;;5136165;27;20423;-79
2023/07/14 11:47:02;;;;;;;24.20;22.60;;;;;;;;;;5135841;27;20527;-79
2023/07/14 11:49:35;;;;;;;23.77;22.27;;;;;;;;;;5136005;27;20462;-80
2023/07/14 11:52:11;;;;;;;23.80;22.20;;;;;;;;;;5136694;27;20441;-79
2023/07/14 11:54:42;;;;;;;23.03;21.53;;;;;;;;;;5136099;27;20397;-78
2023/07/14 11:57:15;;;;;;;23.67;22.07;;;;;;;;;;5135225;27;20454;-79
2023/07/14 11:59:52;;;;;;;22.73;21.33;;;;;;;;;;5135939;27;20547;-78
2023/07/14 12:02:29;;;;;;;23.50;22.10;;;;;;;;;;5135437;27;20442;-79
2023/07/14 12:05:01;;;;;;;24.03;22.33;;;;;;;;;;5135594;27;20437;-86
2023/07/14 12:07:28;;;;;;;24.77;22.93;;;;;;;;;;5134652;27;20436;-77
2023/07/14 12:09:59;;;;;;;24.73;22.93;;;;;;;;;;5134903;27;20456;-79
2023/07/14 12:12:27;;;;;;;24.23;22.47;;;;;;;;;;5135764;27;20450;-78
2023/07/14 12:14:54;;;;;;;24.73;22.93;;;;;;;;;;5133938;27;20486;-78
2023/07/14 12:17:44;;;;;;;23.93;22.33;;;;;;;;;;5134503;27;20429;-79
2023/07/14 12:20:30;;;;;;;24.10;22.50;;;;;;;;;;5134778;27;21328;-80
2023/07/14 12:23:18;;;;;;;23.67;22.07;;;;;;;;;;5135327;27;20448;-77
2023/07/14 12:25:48;;;;;;;23.83;22.23;;;;;;;;;;5134327;27;20534;-79
2023/07/14 12:28:16;;;;;;;24.00;22.30;;;;;;;;;;5134985;27;20435;-79
2023/07/14 12:30:48;;;;;;;23.93;22.30;;;;;;;;;;5135086;27;20490;-80
2023/07/14 12:33:19;;;;;;;24.07;22.47;;;;;;;;;;5134678;27;20453;-78
2023/07/14 12:35:46;;;;;;;25.83;24.13;;;;;;;;;;5134222;27;20455;-78
2023/07/14 12:38:15;;;;;;;24.07;22.27;;;;;;;;;;5134582;27;20462;-80
2023/07/14 12:40:43;;;;;;;24.23;22.43;;;;;;;;;;5133914;27;20471;-79
2023/07/14 12:43:14;;;;;;;23.30;21.93;;;;;;;;;;5134651;27;20447;-79
2023/07/14 12:45:42;;;;;;;24.67;23.07;;;;;;;;;;5134563;27;20431;-78
2023/07/14 12:48:12;;;;;;;25.27;23.67;;;;;;;;;;5134740;27;20795;-78
2023/07/14 12:50:41;;;;;;;24.60;22.87;;;;;;;;;;5134891;27;21228;-80
2023/07/14 12:53:12;;;;;;;24.53;23.10;;;;;;;;;;5137525;27;20538;-80
2023/07/14 12:55:39;;;;;;;24.10;22.70;;;;;;;;;;5135995;27;20437;-78
2023/07/14 12:58:07;;;;;;;24.67;23.17;;;;;;;;;;5137282;27;20426;-80
2023/07/14 13:00:34;;;;;;;23.90;22.50;;;;;;;;;;5151359;27;20486;-78
2023/07/14 13:03:02;;;;;;;24.47;22.87;;;;;;;;;;5155968;27;20450;-79
2023/07/14 13:05:32;;;;;;;24.83;22.93;;;;;;;;;;5157257;27;20943;-80
2023/07/14 13:08:01;;;;;;;24.33;22.83;;;;;;;;;;5156948;27;20809;-79
2023/07/14 13:10:30;;;;;;;23.37;21.97;;;;;;;;;;5156005;27;20490;-80
2023/07/14 13:12:58;;;;;;;24.03;22.43;;;;;;;;;;5156298;27;20424;-80
2023/07/14 13:15:27;;;;;;;23.30;21.70;;;;;;;;;;5156914;27;20463;-79
2023/07/14 13:17:55;;;;;;;24.50;22.60;;;;;;;;;;5155513;27;21274;-79
2023/07/14 13:20:24;;;;;;;23.20;21.63;;;;;;;;;;5155973;27;20472;-80
2023/07/14 13:23:18;;;;;;;23.70;22.20;;;;;;;;;;5156626;27;20488;-78
2023/07/14 13:25:51;;;;;;;24.87;23.27;;;;;;;;;;5155966;27;20436;-80
2023/07/14 13:28:18;;;;;;;23.10;21.67;;;;;;;;;;5156205;27;20959;-80
2023/07/14 13:30:45;;;;;;;24.13;22.60;;;;;;;;;;5156507;27;20470;-79
2023/07/14 13:33:15;;;;;;;23.80;22.30;;;;;;;;;;5156255;27;20979;-79
2023/07/14 13:35:54;;;;;;;23.63;22.23;;;;;;;;;;5155415;27;20420;-81
2023/07/14 13:38:22;;;;;;;24.67;23.00;;;;;;;;;;5156762;27;20397;-79
2023/07/14 13:40:52;;;;;;;23.93;22.30;;;;;;;;;;5157181;27;20826;-81
2023/07/14 13:43:20;;;;;;;24.90;22.90;;;;;;;;;;5173732;27;20463;-80
2023/07/14 13:45:57;;;;;;;23.80;22.40;;;;;;;;;;5177838;27;20445;-79
2023/07/14 13:48:25;;;;;;;23.70;22.10;;;;;;;;;;5177940;27;20424;-81
2023/07/14 13:50:52;;;;;;;24.07;22.67;;;;;;;;;;5158822;27;20496;-80
2023/07/14 13:53:20;;;;;;;23.60;22.20;;;;;;;;;;5156663;27;21188;-79
2023/07/14 13:55:48;;;;;;;23.67;21.80;;;;;;;;;;5156244;27;20432;-82
2023/07/14 13:58:16;;;;;;;24.00;22.30;;;;;;;;;;5156877;27;20416;-81
2023/07/14 14:00:44;;;;;;;22.07;20.67;;;;;;;;;;5155870;27;20676;-79
2023/07/14 14:03:12;;;;;;;22.87;21.47;;;;;;;;;;5156609;27;20521;-79
2023/07/14 14:05:40;;;;;;;23.63;22.13;;;;;;;;;;5155700;27;20898;-81
2023/07/14 14:08:11;;;;;;;23.83;22.23;;;;;;;;;;5155386;27;20943;-80
2023/07/14 14:10:38;;;;;;;23.90;22.37;;;;;;;;;;5132773;27;20582;-77
2023/07/14 14:13:06;;;;;;;23.50;22.10;;;;;;;;;;5133683;27;20442;-80
2023/07/14 14:15:35;;;;;;;22.73;21.43;;;;;;;;;;5132905;27;20448;-77
2023/07/14 14:18:04;;;;;;;23.20;21.80;;;;;;;;;;5133653;27;20447;-77
2023/07/14 14:20:33;;;;;;;23.70;22.30;;;;;;;;;;5133442;27;20511;-77
2023/07/14 14:23:04;;;;;;;23.27;21.83;;;;;;;;;;5133237;27;20550;-77
2023/07/14 14:25:32;;;;;;;23.67;22.30;;;;;;;;;;5132460;27;20550;-77
2023/07/14 14:27:59;;;;;;;25.03;23.43;;;;;;;;;;5133684;27;20884;-78